sensor_id;sensor_type;location;lat;lon;timestamp;pressure;altitude;pressure_sealevel;temperature;humidity
77702;BME280;66868;42.708;23.404;2023-03-01T00:00:14;95667.38;;;7.78;86.41
77702;BME280;66868;42.708;23.404;2023-03-01T00:02:40;95666.63;;;7.76;85.85
77702;BME280;66868;42.708;23.404;2023-03-01T00:05:05;95664.22;;;7.73;86.18
77702;BME280;66868;42.708;23.404;2023-03-01T00:07:32;95662.34;;;7.78;86.10
77702;BME280;66868;42.708;23.404;2023-03-01T00:09:57;95637.63;;;7.66;85.27
77702;BME280;66868;42.708;23.404;2023-03-01T00:12:23;95652.06;;;7.62;85.82
77702;BME280;66868;42.708;23.404;2023-03-01T00:14:48;95646.28;;;7.59;85.96
77702;BME280;66868;42.708;23.404;2023-03-01T00:17:14;95661.69;;;7.51;86.55
77702;BME280;66868;42.708;23.404;2023-03-01T00:19:39;95647.47;;;7.50;86.54
77702;BME280;66868;42.708;23.404;2023-03-01T00:22:05;95652.84;;;7.41;86.58
77702;BME280;66868;42.708;23.404;2023-03-01T00:24:30;95643.59;;;7.41;86.26
77702;BME280;66868;42.708;23.404;2023-03-01T00:26:55;95647.94;;;7.38;86.72
77702;BME280;66868;42.708;23.404;2023-03-01T00:29:23;95638.91;;;7.32;86.81
77702;BME280;66868;42.708;23.404;2023-03-01T00:31:48;95633.50;;;7.20;86.94
77702;BME280;66868;42.708;23.404;2023-03-01T00:34:14;95652.28;;;7.34;87.32
77702;BME280;66868;42.708;23.404;2023-03-01T00:36:39;95641.94;;;7.40;87.28
77702;BME280;66868;42.708;23.404;2023-03-01T00:39:09;95604.88;;;7.22;86.58
77702;BME280;66868;42.708;23.404;2023-03-01T00:41:35;95605.66;;;7.24;87.02
77702;BME280;66868;42.708;23.404;2023-03-01T00:44:01;95626.84;;;7.40;86.82
77702;BME280;66868;42.708;23.404;2023-03-01T00:46:27;95622.75;;;7.38;86.51
77702;BME280;66868;42.708;23.404;2023-03-01T00:48:53;95625.09;;;7.42;86.46
77702;BME280;66868;42.708;23.404;2023-03-01T00:51:22;95625.97;;;7.41;86.44
77702;BME280;66868;42.708;23.404;2023-03-01T00:53:50;95618.63;;;7.35;85.85
77702;BME280;66868;42.708;23.404;2023-03-01T00:56:16;95625.09;;;7.42;86.11
77702;BME280;66868;42.708;23.404;2023-03-01T00:58:42;95619.63;;;7.31;86.47
77702;BME280;66868;42.708;23.404;2023-03-01T01:01:09;95614.50;;;7.34;86.46
77702;BME280;66868;42.708;23.404;2023-03-01T01:03:54;95615.25;;;7.36;86.11
77702;BME280;66868;42.708;23.404;2023-03-01T01:06:23;95596.97;;;7.31;85.93
77702;BME280;66868;42.708;23.404;2023-03-01T01:08:50;95605.50;;;7.27;86.00
77702;BME280;66868;42.708;23.404;2023-03-01T01:11:16;95622.06;;;7.34;86.00
77702;BME280;66868;42.708;23.404;2023-03-01T01:13:44;95625.56;;;7.30;86.17
77702;BME280;66868;42.708;23.404;2023-03-01T01:16:10;95628.09;;;7.30;86.01
77702;BME280;66868;42.708;23.404;2023-03-01T01:18:35;95623.06;;;7.30;86.10
77702;BME280;66868;42.708;23.404;2023-03-01T01:21:10;95628.97;;;7.29;85.69
77702;BME280;66868;42.708;23.404;2023-03-01T01:23:37;95603.81;;;7.06;85.98
77702;BME280;66868;42.708;23.404;2023-03-01T01:26:07;95617.69;;;7.16;85.89
77702;BME280;66868;42.708;23.404;2023-03-01T01:28:33;95599.78;;;7.02;85.97
77702;BME280;66868;42.708;23.404;2023-03-01T01:30:59;95618.03;;;7.07;86.40
77702;BME280;66868;42.708;23.404;2023-03-01T01:33:24;95624.94;;;7.02;86.29
77702;BME280;66868;42.708;23.404;2023-03-01T01:35:49;95623.41;;;6.98;87.35
77702;BME280;66868;42.708;23.404;2023-03-01T01:38:15;95572.66;;;6.63;86.37
77702;BME280;66868;42.708;23.404;2023-03-01T01:40:45;95629.19;;;7.00;86.60
77702;BME280;66868;42.708;23.404;2023-03-01T01:43:29;95634.22;;;7.00;86.32
77702;BME280;66868;42.708;23.404;2023-03-01T01:46:18;95633.47;;;6.98;86.65
77702;BME280;66868;42.708;23.404;2023-03-01T01:48:56;95629.53;;;6.91;87.01
77702;BME280;66868;42.708;23.404;2023-03-01T01:51:26;95631.19;;;6.92;87.34
77702;BME280;66868;42.708;23.404;2023-03-01T01:53:58;95630.31;;;6.93;86.55
77702;BME280;66868;42.708;23.404;2023-03-01T01:56:26;95619.63;;;6.86;87.33
77702;BME280;66868;42.708;23.404;2023-03-01T01:58:53;95626.31;;;6.87;87.34
77702;BME280;66868;42.708;23.404;2023-03-01T02:01:19;95626.84;;;6.95;86.71
77702;BME280;66868;42.708;23.404;2023-03-01T02:03:45;95612.53;;;6.97;86.12
77702;BME280;66868;42.708;23.404;2023-03-01T02:08:47;95613.88;;;7.06;85.86
77702;BME280;66868;42.708;23.404;2023-03-01T02:11:14;95615.53;;;7.07;85.54
77702;BME280;66868;42.708;23.404;2023-03-01T02:13:40;95610.50;;;7.07;85.69
77702;BME280;66868;42.708;23.404;2023-03-01T02:16:12;95604.47;;;7.11;86.15
77702;BME280;66868;42.708;23.404;2023-03-01T02:18:39;95606.81;;;7.16;86.16
77702;BME280;66868;42.708;23.404;2023-03-01T02:23:59;95609.25;;;7.17;86.04
77702;BME280;66868;42.708;23.404;2023-03-01T02:26:40;95596.34;;;7.03;86.33
77702;BME280;66868;42.708;23.404;2023-03-01T02:29:06;95616.19;;;7.12;85.89
77702;BME280;66868;42.708;23.404;2023-03-01T02:31:32;95619.09;;;7.01;86.42
77702;BME280;66868;42.708;23.404;2023-03-01T02:34:10;95610.50;;;7.07;86.32
77702;BME280;66868;42.708;23.404;2023-03-01T02:36:44;95603.28;;;6.98;85.80
77702;BME280;66868;42.708;23.404;2023-03-01T02:39:17;95612.88;;;7.10;85.92
77702;BME280;66868;42.708;23.404;2023-03-01T02:41:47;95620.94;;;6.96;86.69
77702;BME280;66868;42.708;23.404;2023-03-01T02:44:13;95624.44;;;6.92;86.89
77702;BME280;66868;42.708;23.404;2023-03-01T02:46:50;95593.66;;;6.86;86.61
77702;BME280;66868;42.708;23.404;2023-03-01T02:49:26;95616.44;;;7.04;85.89
77702;BME280;66868;42.708;23.404;2023-03-01T02:54:41;95615.91;;;6.96;86.33
77702;BME280;66868;42.708;23.404;2023-03-01T02:57:09;95607.09;;;6.85;87.04
77702;BME280;66868;42.708;23.404;2023-03-01T02:59:36;95612.03;;;6.88;86.28
77702;BME280;66868;42.708;23.404;2023-03-01T03:02:07;95602.06;;;6.85;86.77
77702;BME280;66868;42.708;23.404;2023-03-01T03:04:32;95580.31;;;6.84;85.80
77702;BME280;66868;42.708;23.404;2023-03-01T03:06:58;95612.03;;;7.11;86.18
77702;BME280;66868;42.708;23.404;2023-03-01T03:09:23;95610.16;;;7.16;85.82
77702;BME280;66868;42.708;23.404;2023-03-01T03:11:49;95611.84;;;7.16;85.25
77702;BME280;66868;42.708;23.404;2023-03-01T03:14:16;95609.97;;;7.21;85.64
77702;BME280;66868;42.708;23.404;2023-03-01T03:16:47;95617.69;;;7.16;85.15
77702;BME280;66868;42.708;23.404;2023-03-01T03:19:13;95610.91;;;7.18;84.89
77702;BME280;66868;42.708;23.404;2023-03-01T03:21:39;95614.88;;;7.02;85.38
77702;BME280;66868;42.708;23.404;2023-03-01T03:24:04;95604.38;;;6.91;85.62
77702;BME280;66868;42.708;23.404;2023-03-01T03:26:31;95607.53;;;6.96;85.52
77702;BME280;66868;42.708;23.404;2023-03-01T03:28:56;95600.94;;;6.93;85.04
77702;BME280;66868;42.708;23.404;2023-03-01T03:31:22;95617.09;;;7.09;85.10
77702;BME280;66868;42.708;23.404;2023-03-01T03:33:48;95627.13;;;7.11;85.58
77702;BME280;66868;42.708;23.404;2023-03-01T03:36:18;95611.59;;;7.00;86.24
77702;BME280;66868;42.708;23.404;2023-03-01T03:38:44;95628.84;;;7.09;86.40
77702;BME280;66868;42.708;23.404;2023-03-01T03:41:11;95624.81;;;7.05;85.62
77702;BME280;66868;42.708;23.404;2023-03-01T03:43:55;95631.53;;;7.04;85.80
77702;BME280;66868;42.708;23.404;2023-03-01T03:46:39;95610.00;;;6.97;86.08
77702;BME280;66868;42.708;23.404;2023-03-01T03:49:04;95632.97;;;7.12;85.33
77702;BME280;66868;42.708;23.404;2023-03-01T03:51:30;95620.72;;;7.02;85.60
77702;BME280;66868;42.708;23.404;2023-03-01T03:53:55;95630.47;;;7.12;85.96
77702;BME280;66868;42.708;23.404;2023-03-01T03:56:20;95621.66;;;7.00;85.06
77702;BME280;66868;42.708;23.404;2023-03-01T04:01:49;95631.72;;;7.00;85.57
77702;BME280;66868;42.708;23.404;2023-03-01T04:04:33;95568.72;;;6.56;84.97
77702;BME280;66868;42.708;23.404;2023-03-01T04:06:58;95625.47;;;6.87;85.02
77702;BME280;66868;42.708;23.404;2023-03-01T04:09:23;95619.03;;;6.80;85.83
77702;BME280;66868;42.708;23.404;2023-03-01T04:11:49;95637.41;;;6.82;86.09
77702;BME280;66868;42.708;23.404;2023-03-01T04:14:14;95636.75;;;6.77;86.43
77702;BME280;66868;42.708;23.404;2023-03-01T04:16:39;95644.13;;;6.81;85.18
77702;BME280;66868;42.708;23.404;2023-03-01T04:19:05;95640.91;;;6.78;85.68
77702;BME280;66868;42.708;23.404;2023-03-01T04:21:31;95640.91;;;6.78;85.53
77702;BME280;66868;42.708;23.404;2023-03-01T04:23:56;95619.19;;;6.75;85.33
77702;BME280;66868;42.708;23.404;2023-03-01T04:26:22;95638.13;;;6.85;85.53
77702;BME280;66868;42.708;23.404;2023-03-01T04:28:47;95629.16;;;6.78;85.60
77702;BME280;66868;42.708;23.404;2023-03-01T04:31:17;95625.94;;;6.75;85.96
77702;BME280;66868;42.708;23.404;2023-03-01T04:33:51;95631.06;;;6.72;86.51
77702;BME280;66868;42.708;23.404;2023-03-01T04:36:19;95608.84;;;6.59;86.30
77702;BME280;66868;42.708;23.404;2023-03-01T04:38:45;95637.41;;;6.82;86.37
77702;BME280;66868;42.708;23.404;2023-03-01T04:41:16;95634.03;;;6.83;85.91
77702;BME280;66868;42.708;23.404;2023-03-01T04:43:42;95631.38;;;6.86;85.83
77702;BME280;66868;42.708;23.404;2023-03-01T04:46:11;95621.56;;;6.80;85.46
77702;BME280;66868;42.708;23.404;2023-03-01T04:48:38;95620.66;;;6.81;85.53
77702;BME280;66868;42.708;23.404;2023-03-01T04:51:04;95618.16;;;6.81;85.40
77702;BME280;66868;42.708;23.404;2023-03-01T04:53:31;95622.84;;;6.90;85.14
77702;BME280;66868;42.708;23.404;2023-03-01T04:55:57;95628.78;;;6.89;85.50
77702;BME280;66868;42.708;23.404;2023-03-01T04:58:24;95624.66;;;6.86;85.11
77702;BME280;66868;42.708;23.404;2023-03-01T05:00:50;95618.97;;;6.81;85.96
77702;BME280;66868;42.708;23.404;2023-03-01T05:03:16;95622.59;;;6.74;86.76
77702;BME280;66868;42.708;23.404;2023-03-01T05:05:46;95592.31;;;6.52;86.55
77702;BME280;66868;42.708;23.404;2023-03-01T05:08:13;95606.19;;;6.64;86.42
77702;BME280;66868;42.708;23.404;2023-03-01T05:10:46;95622.97;;;6.63;87.02
77702;BME280;66868;42.708;23.404;2023-03-01T05:13:13;95632.91;;;6.66;87.14
77702;BME280;66868;42.708;23.404;2023-03-01T05:15:39;95622.75;;;6.70;86.99
77702;BME280;66868;42.708;23.404;2023-03-01T05:18:05;95615.97;;;6.72;86.41
77702;BME280;66868;42.708;23.404;2023-03-01T05:20:37;95626.47;;;6.83;85.24
77702;BME280;66868;42.708;23.404;2023-03-01T05:23:03;95617.50;;;6.76;85.81
77702;BME280;66868;42.708;23.404;2023-03-01T05:25:31;95586.09;;;6.62;85.26
77702;BME280;66868;42.708;23.404;2023-03-01T05:27:59;95631.94;;;6.94;85.04
77702;BME280;66868;42.708;23.404;2023-03-01T05:30:28;95631.94;;;6.94;85.15
77702;BME280;66868;42.708;23.404;2023-03-01T05:32:53;95627.19;;;6.86;85.31
77702;BME280;66868;42.708;23.404;2023-03-01T05:35:21;95628.06;;;6.85;85.34
77702;BME280;66868;42.708;23.404;2023-03-01T05:37:48;95634.22;;;6.77;85.38
77702;BME280;66868;42.708;23.404;2023-03-01T05:40:23;95626.59;;;6.80;85.08
77702;BME280;66868;42.708;23.404;2023-03-01T05:42:53;95636.38;;;6.87;85.47
77702;BME280;66868;42.708;23.404;2023-03-01T05:45:20;95628.22;;;6.81;85.05
77702;BME280;66868;42.708;23.404;2023-03-01T05:47:47;95643.72;;;6.93;85.78
77702;BME280;66868;42.708;23.404;2023-03-01T05:50:15;95644.41;;;6.97;84.95
77702;BME280;66868;42.708;23.404;2023-03-01T05:52:49;95615.53;;;6.84;84.93
77702;BME280;66868;42.708;23.404;2023-03-01T05:55:19;95640.25;;;6.96;84.93
77702;BME280;66868;42.708;23.404;2023-03-01T05:57:45;95636.22;;;6.92;84.91
77702;BME280;66868;42.708;23.404;2023-03-01T06:00:12;95633.81;;;6.89;84.51
77702;BME280;66868;42.708;23.404;2023-03-01T06:02:38;95653.50;;;7.01;84.51
77702;BME280;66868;42.708;23.404;2023-03-01T06:05:09;95645.44;;;6.91;84.58
77702;BME280;66868;42.708;23.404;2023-03-01T06:07:34;95660.38;;;6.96;84.93
77702;BME280;66868;42.708;23.404;2023-03-01T06:10:00;95658.84;;;6.92;85.07
77702;BME280;66868;42.708;23.404;2023-03-01T06:12:25;95650.03;;;6.80;85.62
77702;BME280;66868;42.708;23.404;2023-03-01T06:14:51;95664.75;;;6.91;85.33
77702;BME280;66868;42.708;23.404;2023-03-01T06:17:16;95673.09;;;6.93;85.49
77702;BME280;66868;42.708;23.404;2023-03-01T06:19:42;95673.63;;;7.01;84.91
77702;BME280;66868;42.708;23.404;2023-03-01T06:22:07;95675.16;;;7.05;85.11
77702;BME280;66868;42.708;23.404;2023-03-01T06:24:33;95678.34;;;7.10;84.87
77702;BME280;66868;42.708;23.404;2023-03-01T06:26:59;95659.22;;;7.04;84.92
77702;BME280;66868;42.708;23.404;2023-03-01T06:29:24;95644.97;;;7.05;84.56
77702;BME280;66868;42.708;23.404;2023-03-01T06:31:49;95669.47;;;7.23;85.81
77702;BME280;66868;42.708;23.404;2023-03-01T06:34:15;95679.19;;;7.32;85.21
77702;BME280;66868;42.708;23.404;2023-03-01T06:36:40;95673.94;;;7.38;84.42
77702;BME280;66868;42.708;23.404;2023-03-01T06:39:06;95682.91;;;7.45;83.81
77702;BME280;66868;42.708;23.404;2023-03-01T06:41:32;95674.91;;;7.58;83.24
77702;BME280;66868;42.708;23.404;2023-03-01T06:44:07;95649.75;;;7.56;81.92
77702;BME280;66868;42.708;23.404;2023-03-01T06:46:32;95666.00;;;7.71;81.33
77702;BME280;66868;42.708;23.404;2023-03-01T06:48:58;95647.75;;;7.64;81.13
77702;BME280;66868;42.708;23.404;2023-03-01T06:51:23;95614.03;;;7.46;81.45
77702;BME280;66868;42.708;23.404;2023-03-01T06:53:48;95668.81;;;7.85;81.14
77702;BME280;66868;42.708;23.404;2023-03-01T06:56:14;95676.59;;;7.79;81.08
77702;BME280;66868;42.708;23.404;2023-03-01T06:58:40;95676.34;;;7.85;81.74
77702;BME280;66868;42.708;23.404;2023-03-01T07:01:06;95675.34;;;7.89;81.41
77702;BME280;66868;42.708;23.404;2023-03-01T07:03:32;95651.44;;;7.77;81.47
77702;BME280;66868;42.708;23.404;2023-03-01T07:05:57;95676.22;;;7.88;81.36
77702;BME280;66868;42.708;23.404;2023-03-01T07:08:23;95669.63;;;7.85;81.75
77702;BME280;66868;42.708;23.404;2023-03-01T07:10:48;95672.72;;;7.92;81.40
77702;BME280;66868;42.708;23.404;2023-03-01T07:13:14;95637.28;;;7.75;81.74
77702;BME280;66868;42.708;23.404;2023-03-01T07:15:40;95673.84;;;8.05;82.36
77702;BME280;66868;42.708;23.404;2023-03-01T07:18:05;95675.41;;;8.09;81.86
77702;BME280;66868;42.708;23.404;2023-03-01T07:20:30;95645.81;;;7.92;81.62
77702;BME280;66868;42.708;23.404;2023-03-01T07:22:56;95676.00;;;8.14;80.89
77702;BME280;66868;42.708;23.404;2023-03-01T07:25:26;95659.28;;;8.13;80.68
77702;BME280;66868;42.708;23.404;2023-03-01T07:27:52;95668.22;;;8.20;80.22
77702;BME280;66868;42.708;23.404;2023-03-01T07:30:20;95664.00;;;8.21;80.09
77702;BME280;66868;42.708;23.404;2023-03-01T07:32:45;95665.06;;;8.15;79.78
77702;BME280;66868;42.708;23.404;2023-03-01T07:35:11;95653.03;;;8.22;79.81
77702;BME280;66868;42.708;23.404;2023-03-01T07:37:36;95662.81;;;8.29;79.69
77702;BME280;66868;42.708;23.404;2023-03-01T07:40:03;95664.97;;;8.38;79.12
77702;BME280;66868;42.708;23.404;2023-03-01T07:42:29;95656.97;;;8.49;79.04
77702;BME280;66868;42.708;23.404;2023-03-01T07:44:54;95655.28;;;8.50;78.13
77702;BME280;66868;42.708;23.404;2023-03-01T07:47:20;95661.19;;;8.69;77.54
77702;BME280;66868;42.708;23.404;2023-03-01T07:49:45;95635.44;;;8.61;77.16
77702;BME280;66868;42.708;23.404;2023-03-01T07:52:11;95654.59;;;8.85;77.10
77702;BME280;66868;42.708;23.404;2023-03-01T07:54:37;95650.78;;;8.95;76.97
77702;BME280;66868;42.708;23.404;2023-03-01T07:57:02;95652.91;;;9.04;76.28
77702;BME280;66868;42.708;23.404;2023-03-01T07:59:33;95653.25;;;9.15;76.14
77702;BME280;66868;42.708;23.404;2023-03-01T08:01:59;95637.41;;;9.12;75.60
77702;BME280;66868;42.708;23.404;2023-03-01T08:04:24;95627.59;;;9.06;75.45
77702;BME280;66868;42.708;23.404;2023-03-01T08:06:52;95653.06;;;9.20;75.34
77702;BME280;66868;42.708;23.404;2023-03-01T08:09:17;95590.91;;;8.97;74.53
77702;BME280;66868;42.708;23.404;2023-03-01T08:11:46;95632.75;;;9.21;75.30
77702;BME280;66868;42.708;23.404;2023-03-01T08:14:19;95643.06;;;9.36;75.13
77702;BME280;66868;42.708;23.404;2023-03-01T08:16:49;95628.53;;;9.41;74.66
77702;BME280;66868;42.708;23.404;2023-03-01T08:19:14;95640.38;;;9.57;74.57
77702;BME280;66868;42.708;23.404;2023-03-01T08:21:40;95639.69;;;9.54;73.76
77702;BME280;66868;42.708;23.404;2023-03-01T08:24:06;95640.09;;;9.63;73.67
77702;BME280;66868;42.708;23.404;2023-03-01T08:26:35;95614.75;;;9.65;74.00
77702;BME280;66868;42.708;23.404;2023-03-01T08:29:01;95645.13;;;9.82;72.71
77702;BME280;66868;42.708;23.404;2023-03-01T08:37:07;95643.34;;;9.84;72.92
77702;BME280;66868;42.708;23.404;2023-03-01T08:39:32;95630.38;;;9.73;72.69
77702;BME280;66868;42.708;23.404;2023-03-01T08:41:58;95637.81;;;9.76;72.75
77702;BME280;66868;42.708;23.404;2023-03-01T08:44:23;95625.03;;;9.79;73.03
77702;BME280;66868;42.708;23.404;2023-03-01T08:46:50;95624.44;;;9.91;72.57
77702;BME280;66868;42.708;23.404;2023-03-01T08:49:19;95631.16;;;9.92;72.72
77702;BME280;66868;42.708;23.404;2023-03-01T08:51:45;95642.25;;;10.07;72.34
77702;BME280;66868;42.708;23.404;2023-03-01T08:54:15;95653.66;;;10.15;71.90
77702;BME280;66868;42.708;23.404;2023-03-01T08:56:41;95646.34;;;10.27;72.32
77702;BME280;66868;42.708;23.404;2023-03-01T08:59:07;95628.09;;;10.22;71.27
77702;BME280;66868;42.708;23.404;2023-03-01T09:01:33;95632.81;;;10.28;71.16
77702;BME280;66868;42.708;23.404;2023-03-01T09:03:59;95651.72;;;10.55;70.63
77702;BME280;66868;42.708;23.404;2023-03-01T09:06:24;95641.00;;;10.50;69.77
77702;BME280;66868;42.708;23.404;2023-03-01T09:08:50;95644.56;;;10.63;70.29
77702;BME280;66868;42.708;23.404;2023-03-01T09:11:19;95649.91;;;10.74;70.62
77702;BME280;66868;42.708;23.404;2023-03-01T09:13:45;95639.19;;;10.69;69.78
77702;BME280;66868;42.708;23.404;2023-03-01T09:16:13;95649.00;;;10.75;70.07
77702;BME280;66868;42.708;23.404;2023-03-01T09:18:39;95643.94;;;10.75;69.06
77702;BME280;66868;42.708;23.404;2023-03-01T09:21:14;95645.94;;;10.86;69.60
77702;BME280;66868;42.708;23.404;2023-03-01T09:23:44;95652.25;;;10.94;69.22
77702;BME280;66868;42.708;23.404;2023-03-01T09:26:13;95631.03;;;10.80;68.88
77702;BME280;66868;42.708;23.404;2023-03-01T09:28:39;95639.56;;;10.94;69.15
77702;BME280;66868;42.708;23.404;2023-03-01T09:31:06;95641.00;;;11.00;69.25
77702;BME280;66868;42.708;23.404;2023-03-01T09:33:32;95636.06;;;10.97;68.68
77702;BME280;66868;42.708;23.404;2023-03-01T09:36:03;95629.09;;;10.85;68.26
77702;BME280;66868;42.708;23.404;2023-03-01T09:38:30;95636.47;;;10.89;68.65
77702;BME280;66868;42.708;23.404;2023-03-01T09:40:55;95623.25;;;10.67;68.52
77702;BME280;66868;42.708;23.404;2023-03-01T09:46:09;95636.94;;;10.80;69.04
77702;BME280;66868;42.708;23.404;2023-03-01T09:48:43;95630.22;;;10.79;68.73
77702;BME280;66868;42.708;23.404;2023-03-01T09:51:17;95613.56;;;10.75;68.89
77702;BME280;66868;42.708;23.404;2023-03-01T09:53:44;95624.84;;;10.85;69.27
77702;BME280;66868;42.708;23.404;2023-03-01T09:56:47;95620.63;;;11.01;67.40
77702;BME280;66868;42.708;23.404;2023-03-01T09:59:21;95619.00;;;11.16;68.03
77702;BME280;66868;42.708;23.404;2023-03-01T10:01:59;95621.22;;;11.22;67.10
77702;BME280;66868;42.708;23.404;2023-03-01T10:04:49;95613.94;;;11.00;67.53
77702;BME280;66868;42.708;23.404;2023-03-01T10:09:52;95615.97;;;11.25;66.99
77702;BME280;66868;42.708;23.404;2023-03-01T10:12:20;95613.53;;;11.24;66.85
77702;BME280;66868;42.708;23.404;2023-03-01T10:15:19;95614.34;;;11.24;66.51
77702;BME280;66868;42.708;23.404;2023-03-01T10:17:55;95589.25;;;11.04;66.05
77702;BME280;66868;42.708;23.404;2023-03-01T10:20:25;95613.13;;;11.31;66.56
77702;BME280;66868;42.708;23.404;2023-03-01T10:22:52;95594.41;;;11.34;66.16
77702;BME280;66868;42.708;23.404;2023-03-01T10:28:27;95596.94;;;11.65;65.48
77702;BME280;66868;42.708;23.404;2023-03-01T10:30:53;95585.97;;;11.65;65.40
77702;BME280;66868;42.708;23.404;2023-03-01T10:33:27;95550.28;;;11.52;65.04
77702;BME280;66868;42.708;23.404;2023-03-01T10:35:54;95574.00;;;11.67;65.59
77702;BME280;66868;42.708;23.404;2023-03-01T10:38:20;95582.84;;;11.75;65.40
77702;BME280;66868;42.708;23.404;2023-03-01T10:41:06;95588.16;;;11.86;65.94
77702;BME280;66868;42.708;23.404;2023-03-01T10:43:53;95584.47;;;11.76;66.01
77702;BME280;66868;42.708;23.404;2023-03-01T10:46:28;95578.50;;;11.77;65.72
77702;BME280;66868;42.708;23.404;2023-03-01T10:49:20;95572.81;;;11.74;66.13
77702;BME280;66868;42.708;23.404;2023-03-01T10:51:48;95572.53;;;11.63;66.49
77702;BME280;66868;42.708;23.404;2023-03-01T10:56:51;95576.66;;;11.49;66.00
77702;BME280;66868;42.708;23.404;2023-03-01T10:59:48;95576.31;;;11.40;67.46
77702;BME280;66868;42.708;23.404;2023-03-01T11:02:29;95559.84;;;11.33;66.19
77702;BME280;66868;42.708;23.404;2023-03-01T11:10:20;95556.66;;;11.14;67.24
77702;BME280;66868;42.708;23.404;2023-03-01T11:12:46;95525.50;;;10.96;67.53
77702;BME280;66868;42.708;23.404;2023-03-01T11:15:27;95548.53;;;11.07;67.43
77702;BME280;66868;42.708;23.404;2023-03-01T11:17:54;95574.22;;;11.17;67.79
77702;BME280;66868;42.708;23.404;2023-03-01T11:20:32;95560.97;;;11.12;67.86
77702;BME280;66868;42.708;23.404;2023-03-01T11:23:04;95554.94;;;10.98;67.39
77702;BME280;66868;42.708;23.404;2023-03-01T11:25:36;95558.22;;;11.00;67.58
77702;BME280;66868;42.708;23.404;2023-03-01T11:28:05;95563.06;;;10.88;67.71
77702;BME280;66868;42.708;23.404;2023-03-01T11:33:24;95571.91;;;10.96;67.68
77702;BME280;66868;42.708;23.404;2023-03-01T11:35:57;95566.13;;;10.94;68.53
77702;BME280;66868;42.708;23.404;2023-03-01T11:38:26;95558.00;;;10.88;68.00
77702;BME280;66868;42.708;23.404;2023-03-01T11:41:17;95575.03;;;10.86;68.36
77702;BME280;66868;42.708;23.404;2023-03-01T11:44:01;95541.00;;;10.74;68.12
77702;BME280;66868;42.708;23.404;2023-03-01T11:49:32;95546.91;;;10.90;67.72
77702;BME280;66868;42.708;23.404;2023-03-01T11:52:08;95542.84;;;11.03;67.77
77702;BME280;66868;42.708;23.404;2023-03-01T12:19:06;95527.81;;;11.91;65.93
77702;BME280;66868;42.708;23.404;2023-03-01T12:24:45;95517.19;;;12.29;65.07
77702;BME280;66868;42.708;23.404;2023-03-01T12:38:42;95511.09;;;13.01;62.47
77702;BME280;66868;42.708;23.404;2023-03-01T12:44:11;95516.22;;;12.87;62.12
77702;BME280;66868;42.708;23.404;2023-03-01T12:49:57;95505.34;;;12.84;61.99
77702;BME280;66868;42.708;23.404;2023-03-01T12:52:49;95495.34;;;12.81;62.74
77702;BME280;66868;42.708;23.404;2023-03-01T12:55:31;95505.91;;;12.75;63.07
77702;BME280;66868;42.708;23.404;2023-03-01T12:58:03;95498.66;;;12.55;63.17
77702;BME280;66868;42.708;23.404;2023-03-01T13:00:45;95488.16;;;12.61;63.58
77702;BME280;66868;42.708;23.404;2023-03-01T13:06:16;95494.03;;;13.03;61.91
77702;BME280;66868;42.708;23.404;2023-03-01T13:09:24;95500.88;;;13.29;61.80
77702;BME280;66868;42.708;23.404;2023-03-01T13:11:52;95494.94;;;13.43;61.73
77702;BME280;66868;42.708;23.404;2023-03-01T13:16:48;95508.59;;;13.54;61.03
77702;BME280;66868;42.708;23.404;2023-03-01T13:19:28;95512.59;;;13.58;60.53
77702;BME280;66868;42.708;23.404;2023-03-01T13:22:26;95507.72;;;13.41;60.74
77702;BME280;66868;42.708;23.404;2023-03-01T13:25:02;95472.06;;;13.16;61.36
77702;BME280;66868;42.708;23.404;2023-03-01T13:27:36;95506.16;;;13.26;61.46
77702;BME280;66868;42.708;23.404;2023-03-01T13:30:12;95504.50;;;12.98;62.20
77702;BME280;66868;42.708;23.404;2023-03-01T13:32:47;95489.66;;;13.05;62.44
77702;BME280;66868;42.708;23.404;2023-03-01T13:37:42;95481.22;;;13.04;61.40
77702;BME280;66868;42.708;23.404;2023-03-01T13:42:46;95499.34;;;13.53;61.81
77702;BME280;66868;42.708;23.404;2023-03-01T13:47:54;95498.25;;;13.83;60.84
77702;BME280;66868;42.708;23.404;2023-03-01T13:50:25;95486.59;;;14.18;60.03
77702;BME280;66868;42.708;23.404;2023-03-01T13:52:54;95482.41;;;14.17;58.75
77702;BME280;66868;42.708;23.404;2023-03-01T13:55:36;95505.31;;;14.17;59.40
77702;BME280;66868;42.708;23.404;2023-03-01T13:58:13;95503.16;;;13.86;60.04
77702;BME280;66868;42.708;23.404;2023-03-01T14:00:40;95502.78;;;13.52;60.80
77702;BME280;66868;42.708;23.404;2023-03-01T14:03:19;95495.22;;;13.38;61.01
77702;BME280;66868;42.708;23.404;2023-03-01T14:08:24;95444.03;;;13.30;61.49
77702;BME280;66868;42.708;23.404;2023-03-01T14:11:20;95473.09;;;13.53;60.67
77702;BME280;66868;42.708;23.404;2023-03-01T14:19:27;95492.25;;;12.91;63.85
77702;BME280;66868;42.708;23.404;2023-03-01T14:22:32;95493.03;;;12.64;63.92
77702;BME280;66868;42.708;23.404;2023-03-01T14:25:17;95490.50;;;12.50;64.97
77702;BME280;66868;42.708;23.404;2023-03-01T14:27:44;95488.16;;;12.47;65.46
77702;BME280;66868;42.708;23.404;2023-03-01T14:30:15;95472.72;;;12.36;65.28
77702;BME280;66868;42.708;23.404;2023-03-01T14:32:52;95492.41;;;12.47;65.15
77702;BME280;66868;42.708;23.404;2023-03-01T14:35:27;95486.72;;;12.98;64.17
77702;BME280;66868;42.708;23.404;2023-03-01T14:37:53;95471.34;;;13.14;62.86
77702;BME280;66868;42.708;23.404;2023-03-01T14:40:28;95483.19;;;12.87;63.37
77702;BME280;66868;42.708;23.404;2023-03-01T14:42:56;95486.16;;;12.66;63.60
77702;BME280;66868;42.708;23.404;2023-03-01T14:45:27;95493.03;;;12.50;63.83
77702;BME280;66868;42.708;23.404;2023-03-01T14:47:53;95491.41;;;12.35;64.40
77702;BME280;66868;42.708;23.404;2023-03-01T14:50:29;95463.88;;;12.15;64.58
77702;BME280;66868;42.708;23.404;2023-03-01T14:53:00;95488.06;;;12.20;65.03
77702;BME280;66868;42.708;23.404;2023-03-01T14:55:31;95476.53;;;12.01;64.96